sensor_id;sensor_type;location;lat;lon;timestamp;temperature;humidity
11501;DHT22;5807;51.606;7.624;2022-11-15T00:00:49;9.30;99.90
11501;DHT22;5807;51.606;7.624;2022-11-15T00:03:18;8.30;99.90
11501;DHT22;5807;51.606;7.624;2022-11-15T00:05:46;9.10;99.90
11501;DHT22;5807;51.606;7.624;2022-11-15T00:08:13;9.80;99.90
11501;DHT22;5807;51.606;7.624;2022-11-15T00:10:39;9.00;99.90
11501;DHT22;5807;51.606;7.624;2022-11-15T00:13:06;9.00;99.90
11501;DHT22;5807;51.606;7.624;2022-11-15T00:15:35;9.00;99.90
11501;DHT22;5807;51.606;7.624;2022-11-15T00:18:05;9.00;99.90
11501;DHT22;5807;51.606;7.624;2022-11-15T00:20:33;9.00;99.90
11501;DHT22;5807;51.606;7.624;2022-11-15T00:23:00;8.70;99.90
11501;DHT22;5807;51.606;7.624;2022-11-15T00:25:29;8.90;99.90
11501;DHT22;5807;51.606;7.624;2022-11-15T00:27:56;10.30;99.90
11501;DHT22;5807;51.606;7.624;2022-11-15T00:30:24;8.80;99.90
11501;DHT22;5807;51.606;7.624;2022-11-15T00:32:51;8.60;99.90
11501;DHT22;5807;51.606;7.624;2022-11-15T00:35:20;8.70;99.90
11501;DHT22;5807;51.606;7.624;2022-11-15T00:37:47;8.70;99.90
11501;DHT22;5807;51.606;7.624;2022-11-15T00:40:14;8.60;99.90
11501;DHT22;5807;51.606;7.624;2022-11-15T00:42:41;8.50;99.90
11501;DHT22;5807;51.606;7.624;2022-11-15T00:45:09;8.60;99.90
11501;DHT22;5807;51.606;7.624;2022-11-15T00:47:36;8.50;99.90
11501;DHT22;5807;51.606;7.624;2022-11-15T00:50:04;8.60;99.90
11501;DHT22;5807;51.606;7.624;2022-11-15T00:52:32;8.70;99.90
11501;DHT22;5807;51.606;7.624;2022-11-15T00:54:59;9.20;99.90
11501;DHT22;5807;51.606;7.624;2022-11-15T00:57:26;8.70;99.90
11501;DHT22;5807;51.606;7.624;2022-11-15T00:59:52;8.80;99.90
11501;DHT22;5807;51.606;7.624;2022-11-15T01:02:19;8.90;99.90
11501;DHT22;5807;51.606;7.624;2022-11-15T01:04:46;9.50;99.90
11501;DHT22;5807;51.606;7.624;2022-11-15T01:07:13;9.00;99.90
11501;DHT22;5807;51.606;7.624;2022-11-15T01:09:41;9.00;99.90
11501;DHT22;5807;51.606;7.624;2022-11-15T01:12:08;8.00;99.90
11501;DHT22;5807;51.606;7.624;2022-11-15T01:14:35;9.10;99.90
11501;DHT22;5807;51.606;7.624;2022-11-15T01:17:02;9.10;99.90
11501;DHT22;5807;51.606;7.624;2022-11-15T01:19:29;9.10;99.90
11501;DHT22;5807;51.606;7.624;2022-11-15T01:21:55;9.10;99.90
11501;DHT22;5807;51.606;7.624;2022-11-15T01:24:22;9.20;99.90
11501;DHT22;5807;51.606;7.624;2022-11-15T01:26:50;9.40;99.90
11501;DHT22;5807;51.606;7.624;2022-11-15T01:29:17;8.90;99.90
11501;DHT22;5807;51.606;7.624;2022-11-15T01:31:44;9.30;99.90
11501;DHT22;5807;51.606;7.624;2022-11-15T01:34:11;9.40;99.90
11501;DHT22;5807;51.606;7.624;2022-11-15T01:36:40;8.90;99.90
11501;DHT22;5807;51.606;7.624;2022-11-15T01:39:08;9.50;99.90
11501;DHT22;5807;51.606;7.624;2022-11-15T01:41:34;9.60;99.90
11501;DHT22;5807;51.606;7.624;2022-11-15T01:44:39;11.80;99.90
11501;DHT22;5807;51.606;7.624;2022-11-15T01:47:09;10.40;99.90
11501;DHT22;5807;51.606;7.624;2022-11-15T01:49:40;10.40;99.90
11501;DHT22;5807;51.606;7.624;2022-11-15T01:52:12;11.00;99.90
11501;DHT22;5807;51.606;7.624;2022-11-15T01:54:39;11.10;99.90
11501;DHT22;5807;51.606;7.624;2022-11-15T01:57:09;11.50;99.90
11501;DHT22;5807;51.606;7.624;2022-11-15T01:59:39;11.50;99.90
11501;DHT22;5807;51.606;7.624;2022-11-15T02:02:07;11.80;99.90
11501;DHT22;5807;51.606;7.624;2022-11-15T02:04:37;11.90;99.90
11501;DHT22;5807;51.606;7.624;2022-11-15T02:07:07;11.50;99.90
11501;DHT22;5807;51.606;7.624;2022-11-15T02:09:35;12.10;99.90
11501;DHT22;5807;51.606;7.624;2022-11-15T02:12:03;11.90;99.90
11501;DHT22;5807;51.606;7.624;2022-11-15T02:14:32;12.00;99.90
11501;DHT22;5807;51.606;7.624;2022-11-15T02:17:11;12.00;99.90
11501;DHT22;5807;51.606;7.624;2022-11-15T02:19:57;12.00;99.90
11501;DHT22;5807;51.606;7.624;2022-11-15T02:22:38;11.50;99.90
11501;DHT22;5807;51.606;7.624;2022-11-15T02:25:20;12.10;99.90
11501;DHT22;5807;51.606;7.624;2022-11-15T02:31:01;12.10;99.90
11501;DHT22;5807;51.606;7.624;2022-11-15T02:33:35;12.10;99.90
11501;DHT22;5807;51.606;7.624;2022-11-15T02:36:10;12.10;99.90
11501;DHT22;5807;51.606;7.624;2022-11-15T02:38:45;12.30;99.90
11501;DHT22;5807;51.606;7.624;2022-11-15T02:41:16;12.20;99.90
11501;DHT22;5807;51.606;7.624;2022-11-15T02:43:48;12.10;99.90
11501;DHT22;5807;51.606;7.624;2022-11-15T02:46:28;12.20;99.90
11501;DHT22;5807;51.606;7.624;2022-11-15T02:49:11;12.30;99.90
11501;DHT22;5807;51.606;7.624;2022-11-15T02:51:40;12.30;99.90
11501;DHT22;5807;51.606;7.624;2022-11-15T02:54:09;12.60;99.90
11501;DHT22;5807;51.606;7.624;2022-11-15T02:56:37;12.40;99.90
11501;DHT22;5807;51.606;7.624;2022-11-15T02:59:24;12.70;99.90
11501;DHT22;5807;51.606;7.624;2022-11-15T03:02:11;12.40;99.90
11501;DHT22;5807;51.606;7.624;2022-11-15T03:04:44;12.50;99.90
11501;DHT22;5807;51.606;7.624;2022-11-15T03:07:15;12.50;99.90
11501;DHT22;5807;51.606;7.624;2022-11-15T03:09:50;12.50;99.90
11501;DHT22;5807;51.606;7.624;2022-11-15T03:12:23;12.40;99.90
11501;DHT22;5807;51.606;7.624;2022-11-15T03:14:56;12.50;99.90
11501;DHT22;5807;51.606;7.624;2022-11-15T03:17:27;12.50;99.90
11501;DHT22;5807;51.606;7.624;2022-11-15T03:19:56;12.50;99.90
11501;DHT22;5807;51.606;7.624;2022-11-15T03:22:26;12.50;99.90
11501;DHT22;5807;51.606;7.624;2022-11-15T03:24:58;12.50;99.90
11501;DHT22;5807;51.606;7.624;2022-11-15T03:27:31;12.40;99.90
11501;DHT22;5807;51.606;7.624;2022-11-15T03:30:02;12.30;99.90
11501;DHT22;5807;51.606;7.624;2022-11-15T03:32:35;12.20;99.90
11501;DHT22;5807;51.606;7.624;2022-11-15T03:35:06;12.30;99.90
11501;DHT22;5807;51.606;7.624;2022-11-15T03:37:38;12.30;99.90
11501;DHT22;5807;51.606;7.624;2022-11-15T03:40:08;12.20;99.90
11501;DHT22;5807;51.606;7.624;2022-11-15T03:42:39;12.30;99.90
11501;DHT22;5807;51.606;7.624;2022-11-15T03:45:14;12.40;99.90
11501;DHT22;5807;51.606;7.624;2022-11-15T03:47:47;12.30;99.90
11501;DHT22;5807;51.606;7.624;2022-11-15T03:50:18;12.40;99.90
11501;DHT22;5807;51.606;7.624;2022-11-15T03:52:47;12.40;99.90
11501;DHT22;5807;51.606;7.624;2022-11-15T03:55:17;12.40;99.90
11501;DHT22;5807;51.606;7.624;2022-11-15T03:57:45;12.40;99.90
11501;DHT22;5807;51.606;7.624;2022-11-15T04:00:13;12.40;99.90
11501;DHT22;5807;51.606;7.624;2022-11-15T04:02:39;12.50;99.90
11501;DHT22;5807;51.606;7.624;2022-11-15T04:05:08;12.70;99.90
11501;DHT22;5807;51.606;7.624;2022-11-15T04:07:35;12.70;99.90
11501;DHT22;5807;51.606;7.624;2022-11-15T04:10:05;12.10;99.90
11501;DHT22;5807;51.606;7.624;2022-11-15T04:12:33;12.50;99.90
11501;DHT22;5807;51.606;7.624;2022-11-15T04:15:03;12.40;99.90
11501;DHT22;5807;51.606;7.624;2022-11-15T04:17:38;12.40;99.90
11501;DHT22;5807;51.606;7.624;2022-11-15T04:20:09;12.40;99.90
11501;DHT22;5807;51.606;7.624;2022-11-15T04:22:55;12.30;99.90
11501;DHT22;5807;51.606;7.624;2022-11-15T04:25:40;12.20;99.90
11501;DHT22;5807;51.606;7.624;2022-11-15T04:28:08;12.30;99.90
11501;DHT22;5807;51.606;7.624;2022-11-15T04:30:35;12.30;99.90
11501;DHT22;5807;51.606;7.624;2022-11-15T04:33:02;12.30;99.90
11501;DHT22;5807;51.606;7.624;2022-11-15T04:35:30;12.30;99.90
11501;DHT22;5807;51.606;7.624;2022-11-15T04:37:58;12.40;99.90
11501;DHT22;5807;51.606;7.624;2022-11-15T04:40:23;12.30;99.90
11501;DHT22;5807;51.606;7.624;2022-11-15T04:42:50;12.30;99.90
11501;DHT22;5807;51.606;7.624;2022-11-15T04:45:17;12.40;99.90
11501;DHT22;5807;51.606;7.624;2022-11-15T04:47:44;12.40;99.90
11501;DHT22;5807;51.606;7.624;2022-11-15T04:50:11;12.40;99.90
11501;DHT22;5807;51.606;7.624;2022-11-15T04:52:41;12.40;99.90
11501;DHT22;5807;51.606;7.624;2022-11-15T04:55:08;12.30;99.90
11501;DHT22;5807;51.606;7.624;2022-11-15T04:57:36;12.30;99.90
11501;DHT22;5807;51.606;7.624;2022-11-15T05:00:04;12.30;99.90
11501;DHT22;5807;51.606;7.624;2022-11-15T05:02:31;12.30;99.90
11501;DHT22;5807;51.606;7.624;2022-11-15T05:07:40;12.50;99.90
11501;DHT22;5807;51.606;7.624;2022-11-15T05:10:08;12.40;99.90
11501;DHT22;5807;51.606;7.624;2022-11-15T05:12:35;12.40;99.90
11501;DHT22;5807;51.606;7.624;2022-11-15T05:15:02;12.30;99.90
11501;DHT22;5807;51.606;7.624;2022-11-15T05:17:29;12.10;99.90
11501;DHT22;5807;51.606;7.624;2022-11-15T05:19:56;12.30;99.90
11501;DHT22;5807;51.606;7.624;2022-11-15T05:22:23;12.10;99.90
11501;DHT22;5807;51.606;7.624;2022-11-15T05:24:51;12.30;99.90
11501;DHT22;5807;51.606;7.624;2022-11-15T05:27:18;12.40;99.90
11501;DHT22;5807;51.606;7.624;2022-11-15T05:29:45;12.60;99.90
11501;DHT22;5807;51.606;7.624;2022-11-15T05:32:12;12.40;99.90
11501;DHT22;5807;51.606;7.624;2022-11-15T05:34:39;12.40;99.90
11501;DHT22;5807;51.606;7.624;2022-11-15T05:37:05;12.50;99.90
11501;DHT22;5807;51.606;7.624;2022-11-15T05:39:32;12.60;99.90
11501;DHT22;5807;51.606;7.624;2022-11-15T05:42:04;14.30;99.90
11501;DHT22;5807;51.606;7.624;2022-11-15T05:44:33;12.50;99.90
11501;DHT22;5807;51.606;7.624;2022-11-15T05:47:01;12.80;99.90
11501;DHT22;5807;51.606;7.624;2022-11-15T05:49:31;12.80;99.90
11501;DHT22;5807;51.606;7.624;2022-11-15T05:52:03;13.00;99.90
11501;DHT22;5807;51.606;7.624;2022-11-15T05:54:31;12.90;99.90
11501;DHT22;5807;51.606;7.624;2022-11-15T05:56:58;12.90;99.90
11501;DHT22;5807;51.606;7.624;2022-11-15T05:59:28;12.90;99.90
11501;DHT22;5807;51.606;7.624;2022-11-15T06:01:55;12.90;99.90
11501;DHT22;5807;51.606;7.624;2022-11-15T06:04:22;13.00;99.90
11501;DHT22;5807;51.606;7.624;2022-11-15T06:06:49;13.00;99.90
11501;DHT22;5807;51.606;7.624;2022-11-15T06:09:16;13.00;99.90
11501;DHT22;5807;51.606;7.624;2022-11-15T06:11:43;13.00;99.90
11501;DHT22;5807;51.606;7.624;2022-11-15T06:14:10;13.00;99.90
11501;DHT22;5807;51.606;7.624;2022-11-15T06:16:38;12.90;99.90
11501;DHT22;5807;51.606;7.624;2022-11-15T06:19:06;12.90;99.90
11501;DHT22;5807;51.606;7.624;2022-11-15T06:21:33;12.90;99.90
11501;DHT22;5807;51.606;7.624;2022-11-15T06:23:59;12.90;99.90
11501;DHT22;5807;51.606;7.624;2022-11-15T06:26:26;12.90;99.90
11501;DHT22;5807;51.606;7.624;2022-11-15T06:31:20;12.90;99.90
11501;DHT22;5807;51.606;7.624;2022-11-15T06:33:49;12.90;99.90
11501;DHT22;5807;51.606;7.624;2022-11-15T06:36:16;12.90;99.90
11501;DHT22;5807;51.606;7.624;2022-11-15T06:38:43;13.00;99.90
11501;DHT22;5807;51.606;7.624;2022-11-15T06:41:12;12.90;99.90
11501;DHT22;5807;51.606;7.624;2022-11-15T06:43:39;12.90;99.90
11501;DHT22;5807;51.606;7.624;2022-11-15T06:46:06;12.90;99.90
11501;DHT22;5807;51.606;7.624;2022-11-15T06:48:34;13.30;99.90
11501;DHT22;5807;51.606;7.624;2022-11-15T06:51:04;13.00;99.90
11501;DHT22;5807;51.606;7.624;2022-11-15T06:53:32;13.00;99.90
11501;DHT22;5807;51.606;7.624;2022-11-15T06:55:59;13.40;99.90
11501;DHT22;5807;51.606;7.624;2022-11-15T06:58:27;13.10;99.90
11501;DHT22;5807;51.606;7.624;2022-11-15T07:00:59;13.10;99.90
11501;DHT22;5807;51.606;7.624;2022-11-15T07:03:26;13.00;99.90
11501;DHT22;5807;51.606;7.624;2022-11-15T07:05:53;12.90;99.90
11501;DHT22;5807;51.606;7.624;2022-11-15T07:08:23;12.90;99.90
11501;DHT22;5807;51.606;7.624;2022-11-15T07:10:52;13.10;99.90
11501;DHT22;5807;51.606;7.624;2022-11-15T07:13:19;12.90;99.90
11501;DHT22;5807;51.606;7.624;2022-11-15T07:15:46;12.90;99.90
11501;DHT22;5807;51.606;7.624;2022-11-15T07:18:13;13.00;99.90
11501;DHT22;5807;51.606;7.624;2022-11-15T07:20:40;13.00;99.90
11501;DHT22;5807;51.606;7.624;2022-11-15T07:23:06;13.10;99.90
11501;DHT22;5807;51.606;7.624;2022-11-15T07:25:35;13.20;99.90
11501;DHT22;5807;51.606;7.624;2022-11-15T07:28:02;13.20;99.90
11501;DHT22;5807;51.606;7.624;2022-11-15T07:30:29;13.20;99.90
11501;DHT22;5807;51.606;7.624;2022-11-15T07:32:57;13.20;99.90
11501;DHT22;5807;51.606;7.624;2022-11-15T07:35:25;13.20;99.90
11501;DHT22;5807;51.606;7.624;2022-11-15T07:37:54;13.00;99.90
11501;DHT22;5807;51.606;7.624;2022-11-15T07:40:21;13.40;99.90
11501;DHT22;5807;51.606;7.624;2022-11-15T07:42:49;13.50;99.90
11501;DHT22;5807;51.606;7.624;2022-11-15T07:45:19;13.50;99.90
11501;DHT22;5807;51.606;7.624;2022-11-15T07:47:46;13.50;99.90
11501;DHT22;5807;51.606;7.624;2022-11-15T07:50:12;13.60;99.90
11501;DHT22;5807;51.606;7.624;2022-11-15T07:52:39;13.60;99.90
11501;DHT22;5807;51.606;7.624;2022-11-15T07:55:07;13.80;99.90
11501;DHT22;5807;51.606;7.624;2022-11-15T07:57:35;13.50;99.90
11501;DHT22;5807;51.606;7.624;2022-11-15T08:00:05;13.50;99.90
11501;DHT22;5807;51.606;7.624;2022-11-15T08:02:32;13.30;99.90
11501;DHT22;5807;51.606;7.624;2022-11-15T08:05:00;13.20;99.90
11501;DHT22;5807;51.606;7.624;2022-11-15T08:07:29;13.30;99.90
11501;DHT22;5807;51.606;7.624;2022-11-15T08:09:56;13.20;99.90
11501;DHT22;5807;51.606;7.624;2022-11-15T08:12:23;13.20;99.90
11501;DHT22;5807;51.606;7.624;2022-11-15T08:14:50;13.20;99.90
11501;DHT22;5807;51.606;7.624;2022-11-15T08:17:18;13.20;99.90
11501;DHT22;5807;51.606;7.624;2022-11-15T08:19:45;13.20;99.90
11501;DHT22;5807;51.606;7.624;2022-11-15T08:22:12;13.20;99.90
11501;DHT22;5807;51.606;7.624;2022-11-15T08:27:06;13.40;99.90
11501;DHT22;5807;51.606;7.624;2022-11-15T08:29:41;15.00;99.90
11501;DHT22;5807;51.606;7.624;2022-11-15T08:32:08;13.50;99.90
11501;DHT22;5807;51.606;7.624;2022-11-15T08:34:37;13.50;99.90
11501;DHT22;5807;51.606;7.624;2022-11-15T08:37:04;14.30;99.90
11501;DHT22;5807;51.606;7.624;2022-11-15T08:39:31;13.20;99.90
11501;DHT22;5807;51.606;7.624;2022-11-15T08:41:58;13.80;99.90
11501;DHT22;5807;51.606;7.624;2022-11-15T08:44:25;13.60;99.90
11501;DHT22;5807;51.606;7.624;2022-11-15T08:46:52;13.60;99.90
11501;DHT22;5807;51.606;7.624;2022-11-15T08:49:19;13.80;99.90
11501;DHT22;5807;51.606;7.624;2022-11-15T08:51:47;13.70;99.90
11501;DHT22;5807;51.606;7.624;2022-11-15T08:54:14;13.80;99.90
11501;DHT22;5807;51.606;7.624;2022-11-15T08:56:41;14.00;99.90
11501;DHT22;5807;51.606;7.624;2022-11-15T09:01:35;14.10;99.90
11501;DHT22;5807;51.606;7.624;2022-11-15T09:04:02;15.70;99.90
11501;DHT22;5807;51.606;7.624;2022-11-15T09:06:30;14.30;99.90
11501;DHT22;5807;51.606;7.624;2022-11-15T09:09:00;14.70;99.90
11501;DHT22;5807;51.606;7.624;2022-11-15T09:11:27;14.40;99.90
11501;DHT22;5807;51.606;7.624;2022-11-15T09:13:54;14.40;99.90
11501;DHT22;5807;51.606;7.624;2022-11-15T09:16:21;13.90;99.90
11501;DHT22;5807;51.606;7.624;2022-11-15T09:18:48;14.00;99.90
11501;DHT22;5807;51.606;7.624;2022-11-15T09:21:15;14.60;99.90
11501;DHT22;5807;51.606;7.624;2022-11-15T09:23:42;14.70;99.90
11501;DHT22;5807;51.606;7.624;2022-11-15T09:26:10;14.70;99.90
11501;DHT22;5807;51.606;7.624;2022-11-15T09:28:37;15.00;99.90
11501;DHT22;5807;51.606;7.624;2022-11-15T09:31:07;14.70;99.90
11501;DHT22;5807;51.606;7.624;2022-11-15T09:33:34;14.40;99.90
11501;DHT22;5807;51.606;7.624;2022-11-15T09:36:02;14.50;99.90
11501;DHT22;5807;51.606;7.624;2022-11-15T09:38:30;14.40;99.90
11501;DHT22;5807;51.606;7.624;2022-11-15T09:41:26;14.30;99.90
11501;DHT22;5807;51.606;7.624;2022-11-15T09:44:04;14.50;99.90
11501;DHT22;5807;51.606;7.624;2022-11-15T09:46:44;14.40;99.90
11501;DHT22;5807;51.606;7.624;2022-11-15T09:49:15;14.50;99.90
11501;DHT22;5807;51.606;7.624;2022-11-15T09:51:45;14.40;99.90
11501;DHT22;5807;51.606;7.624;2022-11-15T09:54:25;14.40;99.90
11501;DHT22;5807;51.606;7.624;2022-11-15T09:56:56;14.50;99.90
11501;DHT22;5807;51.606;7.624;2022-11-15T09:59:44;14.60;99.90
11501;DHT22;5807;51.606;7.624;2022-11-15T10:02:24;14.60;99.90
11501;DHT22;5807;51.606;7.624;2022-11-15T10:04:57;14.60;99.90
11501;DHT22;5807;51.606;7.624;2022-11-15T10:07:28;14.90;99.90
11501;DHT22;5807;51.606;7.624;2022-11-15T10:10:02;14.90;99.90
11501;DHT22;5807;51.606;7.624;2022-11-15T10:12:31;15.10;99.90
11501;DHT22;5807;51.606;7.624;2022-11-15T10:15:03;15.20;99.90
11501;DHT22;5807;51.606;7.624;2022-11-15T10:20:34;15.30;99.90
11501;DHT22;5807;51.606;7.624;2022-11-15T10:23:06;15.40;99.90
11501;DHT22;5807;51.606;7.624;2022-11-15T10:25:36;15.50;99.90
11501;DHT22;5807;51.606;7.624;2022-11-15T10:28:13;15.50;99.90
11501;DHT22;5807;51.606;7.624;2022-11-15T10:30:44;15.30;99.90
11501;DHT22;5807;51.606;7.624;2022-11-15T10:33:17;15.20;99.90
11501;DHT22;5807;51.606;7.624;2022-11-15T10:35:45;15.30;99.90
11501;DHT22;5807;51.606;7.624;2022-11-15T10:38:12;15.20;99.90
11501;DHT22;5807;51.606;7.624;2022-11-15T10:40:40;15.40;99.90
11501;DHT22;5807;51.606;7.624;2022-11-15T10:43:16;15.50;99.90
11501;DHT22;5807;51.606;7.624;2022-11-15T10:45:45;15.60;99.90
11501;DHT22;5807;51.606;7.624;2022-11-15T10:48:23;15.70;99.90
11501;DHT22;5807;51.606;7.624;2022-11-15T10:50:51;15.70;99.90
11501;DHT22;5807;51.606;7.624;2022-11-15T10:53:29;15.70;99.90
11501;DHT22;5807;51.606;7.624;2022-11-15T10:56:00;15.60;99.90
11501;DHT22;5807;51.606;7.624;2022-11-15T10:58:33;15.70;99.90
11501;DHT22;5807;51.606;7.624;2022-11-15T11:01:16;15.70;99.90
11501;DHT22;5807;51.606;7.624;2022-11-15T11:03:44;15.20;99.90
11501;DHT22;5807;51.606;7.624;2022-11-15T11:06:13;15.60;99.90
11501;DHT22;5807;51.606;7.624;2022-11-15T11:08:52;15.60;99.90
11501;DHT22;5807;51.606;7.624;2022-11-15T11:11:20;15.70;99.90
11501;DHT22;5807;51.606;7.624;2022-11-15T11:13:47;15.50;99.90
11501;DHT22;5807;51.606;7.624;2022-11-15T11:16:24;15.40;99.90
11501;DHT22;5807;51.606;7.624;2022-11-15T11:19:01;15.50;99.90
11501;DHT22;5807;51.606;7.624;2022-11-15T11:21:40;15.60;99.90
11501;DHT22;5807;51.606;7.624;2022-11-15T11:24:15;15.50;99.90
11501;DHT22;5807;51.606;7.624;2022-11-15T11:26:48;15.50;99.90
11501;DHT22;5807;51.606;7.624;2022-11-15T11:29:32;15.60;99.90
11501;DHT22;5807;51.606;7.624;2022-11-15T11:32:14;15.70;99.90
11501;DHT22;5807;51.606;7.624;2022-11-15T11:34:53;15.70;99.90
11501;DHT22;5807;51.606;7.624;2022-11-15T11:37:30;15.80;99.90
11501;DHT22;5807;51.606;7.624;2022-11-15T11:40:13;15.90;99.90
11501;DHT22;5807;51.606;7.624;2022-11-15T11:42:46;15.90;99.90
11501;DHT22;5807;51.606;7.624;2022-11-15T11:45:18;15.90;99.90
11501;DHT22;5807;51.606;7.624;2022-11-15T11:47:53;16.00;99.90
11501;DHT22;5807;51.606;7.624;2022-11-15T11:50:24;16.10;99.90
11501;DHT22;5807;51.606;7.624;2022-11-15T11:52:57;15.90;99.90
11501;DHT22;5807;51.606;7.624;2022-11-15T11:55:28;16.10;99.30
11501;DHT22;5807;51.606;7.624;2022-11-15T11:58:04;16.20;99.60
11501;DHT22;5807;51.606;7.624;2022-11-15T12:00:35;16.30;99.90
11501;DHT22;5807;51.606;7.624;2022-11-15T12:03:09;16.40;98.40
11501;DHT22;5807;51.606;7.624;2022-11-15T12:05:40;16.40;98.50
11501;DHT22;5807;51.606;7.624;2022-11-15T12:08:22;16.40;98.50
11501;DHT22;5807;51.606;7.624;2022-11-15T12:10:54;16.60;99.90
11501;DHT22;5807;51.606;7.624;2022-11-15T12:13:26;16.50;97.80
11501;DHT22;5807;51.606;7.624;2022-11-15T12:16:05;16.50;96.80
11501;DHT22;5807;51.606;7.624;2022-11-15T12:18:34;16.50;96.40
11501;DHT22;5807;51.606;7.624;2022-11-15T12:21:04;16.40;96.20
11501;DHT22;5807;51.606;7.624;2022-11-15T12:23:37;16.60;95.20
11501;DHT22;5807;51.606;7.624;2022-11-15T12:26:08;16.50;93.40
11501;DHT22;5807;51.606;7.624;2022-11-15T12:28:41;16.40;92.50
11501;DHT22;5807;51.606;7.624;2022-11-15T12:31:14;16.60;92.80
11501;DHT22;5807;51.606;7.624;2022-11-15T12:33:46;16.50;92.60
11501;DHT22;5807;51.606;7.624;2022-11-15T12:36:34;16.40;91.90
11501;DHT22;5807;51.606;7.624;2022-11-15T12:39:02;16.30;91.80
11501;DHT22;5807;51.606;7.624;2022-11-15T12:41:30;16.50;90.90
11501;DHT22;5807;51.606;7.624;2022-11-15T12:43:58;16.20;90.60
11501;DHT22;5807;51.606;7.624;2022-11-15T12:47:00;16.10;91.00
11501;DHT22;5807;51.606;7.624;2022-11-15T12:49:45;16.20;90.70
11501;DHT22;5807;51.606;7.624;2022-11-15T12:52:15;16.70;90.60
11501;DHT22;5807;51.606;7.624;2022-11-15T12:54:51;16.30;91.10
11501;DHT22;5807;51.606;7.624;2022-11-15T12:57:32;16.10;90.40
11501;DHT22;5807;51.606;7.624;2022-11-15T13:00:00;16.00;90.50
11501;DHT22;5807;51.606;7.624;2022-11-15T13:02:30;16.30;91.00
11501;DHT22;5807;51.606;7.624;2022-11-15T13:07:59;16.10;91.20
11501;DHT22;5807;51.606;7.624;2022-11-15T13:10:31;16.10;90.00
11501;DHT22;5807;51.606;7.624;2022-11-15T13:12:59;16.00;90.70
11501;DHT22;5807;51.606;7.624;2022-11-15T13:15:54;16.00;90.60
11501;DHT22;5807;51.606;7.624;2022-11-15T13:18:34;15.90;91.30
11501;DHT22;5807;51.606;7.624;2022-11-15T13:21:03;15.90;91.20
11501;DHT22;5807;51.606;7.624;2022-11-15T13:23:55;15.70;92.00
11501;DHT22;5807;51.606;7.624;2022-11-15T13:26:22;15.70;92.10
11501;DHT22;5807;51.606;7.624;2022-11-15T13:28:51;15.70;92.70
11501;DHT22;5807;51.606;7.624;2022-11-15T13:31:35;15.80;93.30
11501;DHT22;5807;51.606;7.624;2022-11-15T13:34:24;15.70;93.40
11501;DHT22;5807;51.606;7.624;2022-11-15T13:36:51;15.70;93.50
11501;DHT22;5807;51.606;7.624;2022-11-15T13:39:27;15.60;93.50
11501;DHT22;5807;51.606;7.624;2022-11-15T13:41:55;15.60;94.10
11501;DHT22;5807;51.606;7.624;2022-11-15T13:44:24;15.60;94.30
11501;DHT22;5807;51.606;7.624;2022-11-15T13:47:02;15.50;94.20
11501;DHT22;5807;51.606;7.624;2022-11-15T13:49:30;15.50;94.50
11501;DHT22;5807;51.606;7.624;2022-11-15T13:51:58;15.50;94.30
11501;DHT22;5807;51.606;7.624;2022-11-15T13:54:29;15.30;94.40
11501;DHT22;5807;51.606;7.624;2022-11-15T13:57:00;15.10;94.60
11501;DHT22;5807;51.606;7.624;2022-11-15T13:59:30;15.00;94.80
11501;DHT22;5807;51.606;7.624;2022-11-15T14:02:02;14.90;95.40
11501;DHT22;5807;51.606;7.624;2022-11-15T14:04:30;14.80;95.50
11501;DHT22;5807;51.606;7.624;2022-11-15T14:06:59;14.80;95.80
11501;DHT22;5807;51.606;7.624;2022-11-15T14:09:36;14.90;95.90
11501;DHT22;5807;51.606;7.624;2022-11-15T14:12:28;14.60;96.10
11501;DHT22;5807;51.606;7.624;2022-11-15T14:14:56;14.60;96.10
11501;DHT22;5807;51.606;7.624;2022-11-15T14:17:34;14.60;96.50
11501;DHT22;5807;51.606;7.624;2022-11-15T14:20:02;14.50;96.50
11501;DHT22;5807;51.606;7.624;2022-11-15T14:22:51;14.40;97.30
11501;DHT22;5807;51.606;7.624;2022-11-15T14:25:21;14.30;97.80
11501;DHT22;5807;51.606;7.624;2022-11-15T14:28:09;14.30;97.70
11501;DHT22;5807;51.606;7.624;2022-11-15T14:30:36;14.10;98.10
11501;DHT22;5807;51.606;7.624;2022-11-15T14:33:21;13.40;98.10
11501;DHT22;5807;51.606;7.624;2022-11-15T14:35:48;14.10;98.00
11501;DHT22;5807;51.606;7.624;2022-11-15T14:38:15;14.10;98.50
11501;DHT22;5807;51.606;7.624;2022-11-15T14:40:44;14.10;98.60
11501;DHT22;5807;51.606;7.624;2022-11-15T14:43:11;14.20;98.70
11501;DHT22;5807;51.606;7.624;2022-11-15T14:45:39;14.20;98.90
11501;DHT22;5807;51.606;7.624;2022-11-15T14:48:06;14.30;99.20
11501;DHT22;5807;51.606;7.624;2022-11-15T14:50:34;14.30;99.70
11501;DHT22;5807;51.606;7.624;2022-11-15T14:53:01;14.30;99.50
11501;DHT22;5807;51.606;7.624;2022-11-15T14:55:29;14.30;99.10
11501;DHT22;5807;51.606;7.624;2022-11-15T14:57:59;14.30;99.20
11501;DHT22;5807;51.606;7.624;2022-11-15T15:00:27;14.30;99.40
11501;DHT22;5807;51.606;7.624;2022-11-15T15:02:55;14.20;99.30
11501;DHT22;5807;51.606;7.624;2022-11-15T15:05:23;14.10;99.70
11501;DHT22;5807;51.606;7.624;2022-11-15T15:07:51;14.00;99.80
11501;DHT22;5807;51.606;7.624;2022-11-15T15:10:18;14.00;99.90
11501;DHT22;5807;51.606;7.624;2022-11-15T15:12:45;14.00;99.90
11501;DHT22;5807;51.606;7.624;2022-11-15T15:15:15;13.90;99.90
11501;DHT22;5807;51.606;7.624;2022-11-15T15:17:42;13.90;99.90
11501;DHT22;5807;51.606;7.624;2022-11-15T15:20:10;13.80;99.90
11501;DHT22;5807;51.606;7.624;2022-11-15T15:22:37;13.10;99.90
11501;DHT22;5807;51.606;7.624;2022-11-15T15:25:18;13.80;99.90
11501;DHT22;5807;51.606;7.624;2022-11-15T15:27:46;13.60;99.90
11501;DHT22;5807;51.606;7.624;2022-11-15T15:30:14;13.40;99.90
11501;DHT22;5807;51.606;7.624;2022-11-15T15:32:41;12.80;99.90
11501;DHT22;5807;51.606;7.624;2022-11-15T15:35:11;13.20;99.90
11501;DHT22;5807;51.606;7.624;2022-11-15T15:37:39;13.10;99.90
11501;DHT22;5807;51.606;7.624;2022-11-15T15:40:11;13.10;99.90
11501;DHT22;5807;51.606;7.624;2022-11-15T15:42:39;13.10;99.90
11501;DHT22;5807;51.606;7.624;2022-11-15T15:45:07;13.10;99.90
11501;DHT22;5807;51.606;7.624;2022-11-15T15:47:36;13.00;99.90
11501;DHT22;5807;51.606;7.624;2022-11-15T15:50:04;13.00;99.90
11501;DHT22;5807;51.606;7.624;2022-11-15T15:52:39;13.10;99.90
11501;DHT22;5807;51.606;7.624;2022-11-15T15:55:06;13.10;99.90
11501;DHT22;5807;51.606;7.624;2022-11-15T15:57:34;13.00;99.90
11501;DHT22;5807;51.606;7.624;2022-11-15T16:00:01;13.00;99.90
11501;DHT22;5807;51.606;7.624;2022-11-15T16:02:28;13.00;99.90
11501;DHT22;5807;51.606;7.624;2022-11-15T16:04:56;12.90;99.90
11501;DHT22;5807;51.606;7.624;2022-11-15T16:07:23;12.90;99.90
11501;DHT22;5807;51.606;7.624;2022-11-15T16:09:50;12.90;99.90
11501;DHT22;5807;51.606;7.624;2022-11-15T16:12:26;12.90;99.90
11501;DHT22;5807;51.606;7.624;2022-11-15T16:14:53;12.80;99.90
11501;DHT22;5807;51.606;7.624;2022-11-15T16:17:22;12.80;99.90
11501;DHT22;5807;51.606;7.624;2022-11-15T16:19:49;12.70;99.90
11501;DHT22;5807;51.606;7.624;2022-11-15T16:22:18;12.60;99.90
11501;DHT22;5807;51.606;7.624;2022-11-15T16:24:44;12.50;99.90
11501;DHT22;5807;51.606;7.624;2022-11-15T16:27:14;12.80;99.90